Whiteman Air Force Base
KSZL : now visible

Airfield :











YOU CAN JOIN US ON...

 
LOGIN :

Register | Disclaimer

   EN    FR    IT 

 









Legend :    VFR   Marginal VFR   IFR   Intensive IFR   Very Intensive IFR
Visi :
Ceiling :
>= 8 km
>= 3000ft
5 to 8 km
1000 to 3000 ft
1500m to 5 km
500 to 1000 ft
800 to 1500m
200 to 500 ft
< 800m
< 200 ft
Symbols :   Thunderstorms  Fog  Heavy snow  Heavy precipitations  Wind > 20 kt






- Airport Elevation : 870 ft


KSZL - Whiteman Air Force Base

CURRENT METAR :
  • 130456Z 00000KT 10SM CLR 24/18 A2997 RMK AO2A SLP144

EXPIRED METARs :
  • 130356Z 00000KT 10SM CLR 25/18 A2997 RMK AO2A SLP144
  • 130256Z AUTO 00000KT 10SM FEW049 25/11 A2997 RMK AO2 SLP144 T02540112 52015

TAF TAF KSZL
Valid from the 13 at 03:00 until the 14 at 09:00 UTC


130300Z 1303/1409 VRB09KT 9999 FEW050 SCT250 QNH2991INS
TEMPO 1309/1313 4800 BR FEW002 FEW050 SCT250
BECMG 1316/1317 14009KT 9999 SCT030 BKN200 QNH2987INS TX31/1321Z TN22/1312Z
KZKC FIR / North America



MET'MAP, your aeronautical weather chart ! - Copyright ORBIFLY December 2007 - Disclaimer

ORBIFLY MET'MAP TEAM :

Programming & Development : Alexandra Zaïnal
Concept & original design : Baudouin d'Aumeries
Assistance for programming : Marc-Olivier Méhu
Technical & hardware support : Manuel Goepfert

Contact : metmap@orbifly.com




SOURCES & CREDITS :

   NOAA       Earth
Advisory